createdAt,value
2023-03-07T00:01:26.113Z,84.09
2023-03-07T00:03:53.940Z,83.89
2023-03-07T00:06:22.148Z,83.89
2023-03-07T00:08:51.404Z,84.09
2023-03-07T00:11:20.202Z,84.62
2023-03-07T00:13:49.830Z,84.78
2023-03-07T00:16:19.337Z,85.46
2023-03-07T00:18:47.214Z,85.87
2023-03-07T00:21:16.995Z,85.94
2023-03-07T00:23:46.075Z,86.29
2023-03-07T00:26:16.212Z,86.65
2023-03-07T00:28:44.233Z,86.45
2023-03-07T00:31:13.966Z,86.52
2023-03-07T00:33:41.949Z,86.75
2023-03-07T00:36:12.935Z,87.03
2023-03-07T00:38:42.177Z,87.03
2023-03-07T00:41:12.104Z,86.95
2023-03-07T00:43:40.273Z,86.68
2023-03-07T00:46:09.235Z,86.04
2023-03-07T00:48:39.699Z,85.50
2023-03-07T00:51:09.669Z,85.14
2023-03-07T00:53:38.261Z,84.57
2023-03-07T00:56:09.929Z,84.43
2023-03-07T00:58:37.719Z,84.39
2023-03-07T01:01:07.744Z,84.59
2023-03-07T01:03:35.764Z,84.42
2023-03-07T01:06:06.241Z,84.25
2023-03-07T01:08:34.474Z,84.33
2023-03-07T01:11:04.397Z,84.60
2023-03-07T01:13:33.357Z,84.73
2023-03-07T01:16:09.209Z,84.71
2023-03-07T01:18:37.210Z,85.14
2023-03-07T01:21:14.205Z,85.23
2023-03-07T01:23:42.095Z,85.67
2023-03-07T01:26:13.439Z,85.80
2023-03-07T01:28:41.406Z,85.63
2023-03-07T01:31:09.382Z,85.73
2023-03-07T01:33:37.208Z,85.50
2023-03-07T01:36:05.459Z,85.49
2023-03-07T01:38:34.845Z,85.28
2023-03-07T01:41:03.252Z,85.67
2023-03-07T01:43:33.219Z,85.59
2023-03-07T01:46:42.723Z,85.93
2023-03-07T01:49:16.897Z,86.53
2023-03-07T01:51:49.047Z,86.42
2023-03-07T01:54:21.340Z,86.94
2023-03-07T01:56:49.317Z,86.47
2023-03-07T01:59:23.080Z,86.37
2023-03-07T02:01:52.777Z,86.13
2023-03-07T02:04:27.051Z,86.13
2023-03-07T02:06:54.928Z,85.69
2023-03-07T02:09:28.064Z,85.98
2023-03-07T02:11:56.888Z,86.01
2023-03-07T02:14:24.606Z,86.26
2023-03-07T02:16:53.371Z,86.54
2023-03-07T02:19:31.054Z,87.33
2023-03-07T02:22:08.885Z,87.56
2023-03-07T02:24:44.615Z,87.95
2023-03-07T02:27:14.551Z,88.58
2023-03-07T02:29:42.381Z,88.64
2023-03-07T02:32:10.465Z,88.69
2023-03-07T02:34:38.470Z,88.66
2023-03-07T02:37:09.772Z,89.20
2023-03-07T02:39:40.336Z,89.75
2023-03-07T02:42:11.186Z,89.56
2023-03-07T02:44:40.271Z,89.91
2023-03-07T02:47:09.855Z,89.56
2023-03-07T02:49:37.590Z,89.98
2023-03-07T02:52:05.934Z,89.92
2023-03-07T02:54:33.771Z,90.50
2023-03-07T02:57:01.509Z,90.97
2023-03-07T02:59:29.285Z,91.01
2023-03-07T03:01:58.910Z,90.77
2023-03-07T03:04:26.751Z,90.61
2023-03-07T03:06:54.602Z,90.96
2023-03-07T03:09:22.517Z,91.60
2023-03-07T03:11:50.296Z,91.64
2023-03-07T03:14:18.040Z,91.98
2023-03-07T03:16:45.827Z,92.27
2023-03-07T03:19:14.899Z,92.43
2023-03-07T03:21:43.841Z,93.00
2023-03-07T03:24:12.131Z,93.27
2023-03-07T03:26:40.159Z,93.88
2023-03-07T03:29:08.322Z,94.25
2023-03-07T03:31:36.167Z,94.18
2023-03-07T03:34:05.628Z,94.65
2023-03-07T03:36:34.883Z,94.55
2023-03-07T03:39:02.706Z,94.56
2023-03-07T03:41:30.421Z,95.04
2023-03-07T03:43:58.336Z,95.16
2023-03-07T03:46:26.965Z,94.86
2023-03-07T03:48:55.709Z,95.21
2023-03-07T03:51:24.566Z,95.39
2023-03-07T03:53:54.474Z,95.79
2023-03-07T03:56:24.572Z,96.10
2023-03-07T03:58:54.069Z,96.32
2023-03-07T04:01:23.702Z,96.56
2023-03-07T04:03:53.425Z,96.73
2023-03-07T04:06:23.482Z,97.20
2023-03-07T04:08:53.982Z,96.93
2023-03-07T04:11:22.512Z,97.05
2023-03-07T04:13:50.335Z,97.00
2023-03-07T04:16:18.912Z,96.68
2023-03-07T04:18:47.067Z,96.73
2023-03-07T04:21:15.071Z,96.14
2023-03-07T04:23:42.832Z,96.40
2023-03-07T04:26:13.320Z,96.00
2023-03-07T04:28:45.748Z,95.70
2023-03-07T04:31:14.941Z,96.21
2023-03-07T04:33:43.349Z,95.97
2023-03-07T04:36:11.528Z,96.06
2023-03-07T04:38:40.577Z,96.10
2023-03-07T04:41:08.351Z,96.24
2023-03-07T04:43:37.469Z,96.00
2023-03-07T04:46:05.576Z,96.08
2023-03-07T04:48:33.351Z,96.31
2023-03-07T04:51:01.098Z,96.55
2023-03-07T04:53:28.946Z,96.71
2023-03-07T04:55:59.596Z,97.29
2023-03-07T04:58:27.626Z,97.32
2023-03-07T05:00:57.794Z,97.39
2023-03-07T05:03:29.544Z,96.91
2023-03-07T05:05:57.390Z,97.22
2023-03-07T05:08:25.100Z,96.97
2023-03-07T05:10:52.828Z,96.88
2023-03-07T05:13:20.608Z,97.39
2023-03-07T05:15:52.512Z,97.46
2023-03-07T05:18:22.335Z,97.79
2023-03-07T05:20:51.637Z,97.92
2023-03-07T05:23:20.215Z,98.53
2023-03-07T05:25:47.999Z,98.43
2023-03-07T05:28:16.897Z,98.39
2023-03-07T05:30:45.018Z,98.37
2023-03-07T05:33:12.939Z,98.56
2023-03-07T05:35:42.162Z,98.60
2023-03-07T05:38:10.001Z,98.54
2023-03-07T05:40:38.565Z,98.47
2023-03-07T05:43:06.531Z,98.59
2023-03-07T05:45:34.318Z,98.42
2023-03-07T05:48:02.122Z,98.39
2023-03-07T05:50:30.654Z,98.51
2023-03-07T05:52:59.720Z,98.71
2023-03-07T05:55:27.560Z,98.16
2023-03-07T05:57:55.361Z,97.86
2023-03-07T06:00:24.020Z,97.69
2023-03-07T06:02:51.804Z,97.85
2023-03-07T06:05:19.639Z,97.76
2023-03-07T06:07:47.453Z,97.91
2023-03-07T06:10:16.660Z,97.70
2023-03-07T06:12:44.444Z,97.95
2023-03-07T06:15:12.481Z,98.25
2023-03-07T06:17:40.820Z,98.34
2023-03-07T06:20:09.984Z,98.22
2023-03-07T06:22:38.722Z,97.88
2023-03-07T06:25:07.714Z,97.59
2023-03-07T06:27:37.700Z,97.07
2023-03-07T06:30:07.429Z,96.45
2023-03-07T06:32:35.251Z,96.32
2023-03-07T06:35:03.361Z,95.52
2023-03-07T06:37:31.587Z,95.73
2023-03-07T06:39:59.383Z,95.46
2023-03-07T06:42:27.179Z,94.92
2023-03-07T06:44:56.270Z,94.71
2023-03-07T06:47:24.108Z,95.17
2023-03-07T06:49:52.303Z,94.51
2023-03-07T06:52:20.121Z,94.35
2023-03-07T06:54:47.891Z,94.26
2023-03-07T06:57:15.815Z,93.56
2023-03-07T06:59:43.544Z,93.08
2023-03-07T07:02:15.555Z,93.09
2023-03-07T07:04:43.380Z,92.67
2023-03-07T07:07:11.547Z,91.46
2023-03-07T07:09:39.305Z,88.91
2023-03-07T07:12:07.714Z,87.02
2023-03-07T07:14:35.546Z,85.14
2023-03-07T07:17:03.375Z,83.11
2023-03-07T07:19:32.538Z,81.66
2023-03-07T07:22:00.312Z,80.77
2023-03-07T07:24:28.104Z,80.45
2023-03-07T07:26:56.719Z,79.46
2023-03-07T07:29:24.914Z,77.45
2023-03-07T07:31:52.864Z,76.21
2023-03-07T07:34:20.658Z,75.34
2023-03-07T07:36:50.696Z,73.53
2023-03-07T07:39:18.431Z,73.43
2023-03-07T07:41:46.355Z,72.40
2023-03-07T07:44:14.472Z,71.33
2023-03-07T07:46:42.252Z,70.80
2023-03-07T07:49:10.025Z,69.37
2023-03-07T07:51:39.829Z,67.96
2023-03-07T07:54:09.975Z,67.90
2023-03-07T07:56:37.789Z,67.27
2023-03-07T07:59:05.570Z,66.03
2023-03-07T08:01:33.802Z,65.63
2023-03-07T08:04:01.688Z,64.07
2023-03-07T08:06:30.766Z,64.33
2023-03-07T08:09:00.142Z,64.20
2023-03-07T08:11:29.510Z,64.42
2023-03-07T08:13:57.319Z,64.50
2023-03-07T08:16:26.115Z,62.48
2023-03-07T08:18:55.852Z,62.31
2023-03-07T08:21:24.268Z,61.91
2023-03-07T08:23:52.320Z,63.01
2023-03-07T08:26:20.125Z,61.19
2023-03-07T08:28:49.390Z,61.31
2023-03-07T08:31:19.139Z,60.99
2023-03-07T08:33:48.208Z,60.06
2023-03-07T08:36:16.493Z,58.13
2023-03-07T08:38:44.526Z,56.92
2023-03-07T08:41:12.345Z,56.72
2023-03-07T08:43:40.216Z,56.94
2023-03-07T08:46:09.397Z,54.01
2023-03-07T08:48:37.220Z,53.48
2023-03-07T08:51:07.399Z,53.77
2023-03-07T08:53:35.306Z,54.48
2023-03-07T08:56:07.182Z,52.74
2023-03-07T08:58:34.933Z,53.00
2023-03-07T09:01:02.860Z,53.59
2023-03-07T09:03:32.285Z,52.78
2023-03-07T09:06:00.156Z,53.05
2023-03-07T09:08:28.250Z,52.51
2023-03-07T09:10:56.900Z,53.38
2023-03-07T09:13:24.616Z,52.95
2023-03-07T09:15:52.547Z,53.07
2023-03-07T09:18:22.692Z,53.35
2023-03-07T09:20:51.892Z,52.76
2023-03-07T09:23:19.723Z,53.51
2023-03-07T09:25:47.467Z,53.01
2023-03-07T09:28:15.522Z,53.16
2023-03-07T09:30:43.511Z,52.47
2023-03-07T09:33:11.246Z,52.16
2023-03-07T09:35:39.792Z,52.07
2023-03-07T09:38:08.962Z,52.22
2023-03-07T09:40:36.853Z,51.53
2023-03-07T09:43:11.559Z,51.79
2023-03-07T09:46:00.982Z,51.65
2023-03-07T09:49:06.133Z,51.29
2023-03-07T09:51:40.066Z,52.21
2023-03-07T09:54:13.536Z,51.24
2023-03-07T09:56:45.491Z,50.88
2023-03-07T09:59:23.719Z,51.47
2023-03-07T10:01:57.541Z,50.65
2023-03-07T10:04:33.976Z,50.47
2023-03-07T10:07:05.082Z,50.34
2023-03-07T10:09:34.708Z,50.03
2023-03-07T10:12:26.056Z,49.45
2023-03-07T10:15:21.137Z,50.08
2023-03-07T10:18:13.206Z,48.98
2023-03-07T10:20:46.644Z,49.77
2023-03-07T10:23:45.868Z,49.55
2023-03-07T10:26:22.571Z,48.71
2023-03-07T10:28:50.449Z,48.58
2023-03-07T10:31:23.471Z,47.20
2023-03-07T10:33:54.550Z,47.46
2023-03-07T10:36:24.047Z,48.45
2023-03-07T10:39:01.188Z,47.52
2023-03-07T10:41:32.508Z,47.34
2023-03-07T10:44:00.393Z,48.05
2023-03-07T10:46:30.993Z,47.87
2023-03-07T10:49:10.435Z,47.63
2023-03-07T10:51:51.660Z,48.13
2023-03-07T10:54:22.360Z,47.56
2023-03-07T10:57:13.085Z,47.81
2023-03-07T10:59:43.579Z,47.50
2023-03-07T11:02:31.452Z,47.34
2023-03-07T11:05:00.246Z,47.48
2023-03-07T11:07:31.330Z,47.46
2023-03-07T11:10:00.984Z,48.23
2023-03-07T11:12:32.007Z,47.35
2023-03-07T11:15:11.826Z,46.94
2023-03-07T11:17:43.275Z,47.40
2023-03-07T11:20:21.213Z,46.73
2023-03-07T11:22:49.708Z,47.64
2023-03-07T11:25:21.777Z,47.03
2023-03-07T11:27:53.106Z,47.79
2023-03-07T11:30:25.139Z,46.36
2023-03-07T11:33:09.203Z,46.67
2023-03-07T11:35:54.100Z,47.34
2023-03-07T11:38:46.872Z,46.40
2023-03-07T11:41:25.086Z,46.14
2023-03-07T11:44:12.567Z,46.80
2023-03-07T11:46:52.870Z,46.56
2023-03-07T11:49:34.592Z,46.16
2023-03-07T11:52:15.785Z,46.45
2023-03-07T11:54:54.199Z,46.53
2023-03-07T11:57:36.807Z,46.59
2023-03-07T12:00:23.942Z,45.83
2023-03-07T12:03:27.977Z,45.28
2023-03-07T12:06:15.543Z,45.22
2023-03-07T12:08:55.938Z,45.68
2023-03-07T12:11:40.147Z,45.60
2023-03-07T12:14:19.199Z,45.93
2023-03-07T12:16:58.353Z,45.73
2023-03-07T12:19:43.346Z,45.70
2023-03-07T12:22:27.686Z,45.84
2023-03-07T12:25:13.132Z,45.19
2023-03-07T12:27:46.792Z,45.81
2023-03-07T12:30:19.453Z,45.26
2023-03-07T12:32:50.831Z,46.10
2023-03-07T12:35:25.675Z,45.72
2023-03-07T12:37:59.766Z,44.91
2023-03-07T12:40:33.713Z,45.54
2023-03-07T12:43:11.990Z,46.28
2023-03-07T12:45:48.432Z,45.49
2023-03-07T12:48:25.519Z,46.02
2023-03-07T12:50:59.971Z,46.29
2023-03-07T12:53:36.095Z,46.00
2023-03-07T12:56:09.513Z,46.03
2023-03-07T12:58:43.665Z,46.78
2023-03-07T13:01:15.387Z,47.21
2023-03-07T13:03:51.912Z,47.60
2023-03-07T13:06:23.487Z,46.66
2023-03-07T13:08:54.179Z,46.86
2023-03-07T13:11:23.676Z,46.03
2023-03-07T13:13:58.322Z,46.67
2023-03-07T13:16:47.698Z,46.01
2023-03-07T13:20:03.466Z,46.01
2023-03-07T13:23:11.988Z,45.41
2023-03-07T13:26:10.985Z,46.77
2023-03-07T13:28:51.499Z,46.03
2023-03-07T13:31:30.386Z,45.74
2023-03-07T13:34:39.212Z,46.63
2023-03-07T13:37:52.535Z,46.29
2023-03-07T13:40:48.676Z,46.94
2023-03-07T13:43:59.739Z,46.62
2023-03-07T13:46:54.415Z,46.23
2023-03-07T13:49:42.311Z,46.16
2023-03-07T13:52:34.096Z,45.93
2023-03-07T13:55:04.270Z,45.92
2023-03-07T13:57:41.549Z,46.51
2023-03-07T14:00:29.078Z,46.54
2023-03-07T14:02:57.393Z,46.29
2023-03-07T14:05:25.720Z,46.27
2023-03-07T14:07:54.057Z,46.51
2023-03-07T14:10:25.581Z,47.39
2023-03-07T14:13:16.699Z,47.24
2023-03-07T14:15:55.690Z,47.35
2023-03-07T14:18:34.640Z,46.47
2023-03-07T14:21:10.902Z,46.89
2023-03-07T14:24:00.578Z,46.17
2023-03-07T14:26:33.477Z,46.68
2023-03-07T14:29:04.622Z,46.64
2023-03-07T14:31:39.121Z,47.60
2023-03-07T14:34:17.894Z,47.75
2023-03-07T14:36:47.515Z,46.81
2023-03-07T14:39:15.951Z,47.07
2023-03-07T14:41:51.238Z,46.55
2023-03-07T14:44:45.324Z,46.95
2023-03-07T14:47:28.237Z,46.65
2023-03-07T14:50:06.413Z,47.79
2023-03-07T14:52:37.927Z,47.05
2023-03-07T14:55:07.874Z,47.08
2023-03-07T14:57:39.072Z,46.89
2023-03-07T15:00:16.707Z,46.94
2023-03-07T15:02:49.038Z,47.02
2023-03-07T15:05:18.779Z,46.47
2023-03-07T15:07:48.049Z,47.28
2023-03-07T15:10:17.943Z,47.33
2023-03-07T15:12:50.888Z,47.30
2023-03-07T15:15:28.418Z,46.86
2023-03-07T15:17:59.260Z,47.34
2023-03-07T15:20:28.540Z,48.08
2023-03-07T15:23:09.324Z,48.66
2023-03-07T15:25:39.159Z,47.83
2023-03-07T15:28:17.864Z,47.34
2023-03-07T15:30:53.202Z,47.25
2023-03-07T15:33:27.543Z,47.24
2023-03-07T15:36:16.394Z,47.68
2023-03-07T15:38:45.751Z,47.25
2023-03-07T15:41:27.700Z,47.77
2023-03-07T15:44:18.268Z,47.96
2023-03-07T15:46:49.512Z,47.99
2023-03-07T15:49:27.364Z,47.86
2023-03-07T15:51:58.286Z,48.09
2023-03-07T15:54:39.608Z,47.88
2023-03-07T15:57:16.047Z,48.23
2023-03-07T15:59:50.055Z,48.51
2023-03-07T16:02:45.152Z,49.06
2023-03-07T16:05:43.966Z,49.39
2023-03-07T16:08:14.461Z,49.18
2023-03-07T16:10:50.231Z,49.41
2023-03-07T16:13:21.223Z,50.13
2023-03-07T16:16:00.394Z,50.41
2023-03-07T16:18:31.984Z,50.58
2023-03-07T16:20:59.904Z,50.13
2023-03-07T16:23:31.184Z,50.42
2023-03-07T16:26:00.211Z,51.06
2023-03-07T16:28:28.913Z,51.61
2023-03-07T16:30:56.670Z,52.11
2023-03-07T16:33:24.409Z,52.78
2023-03-07T16:35:53.631Z,52.98
2023-03-07T16:38:21.441Z,53.39
2023-03-07T16:40:49.597Z,54.44
2023-03-07T16:43:33.528Z,54.21
2023-03-07T16:46:02.497Z,54.75
2023-03-07T16:48:30.326Z,55.77
2023-03-07T16:50:59.978Z,55.27
2023-03-07T16:53:27.774Z,56.24
2023-03-07T16:55:56.933Z,56.25
2023-03-07T16:58:26.412Z,56.42
2023-03-07T17:00:54.675Z,57.05
2023-03-07T17:03:23.046Z,57.56
2023-03-07T17:05:50.800Z,57.76
2023-03-07T17:08:19.889Z,58.02
2023-03-07T17:10:47.729Z,58.11
2023-03-07T17:13:18.523Z,58.83
2023-03-07T17:15:47.125Z,58.44
2023-03-07T17:18:14.973Z,59.18
2023-03-07T17:20:43.138Z,59.14
2023-03-07T17:23:10.924Z,59.95
2023-03-07T17:25:40.233Z,59.93
2023-03-07T17:28:11.794Z,60.43
2023-03-07T17:30:42.908Z,61.05
2023-03-07T17:33:11.530Z,61.49
2023-03-07T17:35:39.385Z,61.69
2023-03-07T17:38:07.807Z,61.91
2023-03-07T17:40:35.616Z,61.95
2023-03-07T17:43:04.838Z,62.47
2023-03-07T17:45:32.659Z,62.62
2023-03-07T17:48:00.503Z,63.06
2023-03-07T17:50:28.365Z,63.51
2023-03-07T17:52:56.384Z,64.13
2023-03-07T17:55:25.448Z,64.97
2023-03-07T17:57:53.757Z,64.97
2023-03-07T18:00:23.839Z,65.94
2023-03-07T18:02:52.148Z,66.16
2023-03-07T18:05:20.366Z,66.21
2023-03-07T18:07:49.314Z,66.75
2023-03-07T18:10:17.406Z,67.34
2023-03-07T18:12:46.012Z,67.80
2023-03-07T18:15:15.473Z,68.59
2023-03-07T18:17:48.955Z,69.04
2023-03-07T18:20:18.755Z,69.45
2023-03-07T18:22:47.149Z,70.20
2023-03-07T18:25:16.581Z,70.82
2023-03-07T18:27:45.449Z,71.37
2023-03-07T18:30:14.615Z,71.70
2023-03-07T18:32:43.761Z,72.41
2023-03-07T18:35:15.408Z,72.83
2023-03-07T18:37:45.218Z,73.58
2023-03-07T18:40:13.962Z,73.70
2023-03-07T18:42:42.432Z,73.93
2023-03-07T18:45:11.666Z,74.10
2023-03-07T18:47:39.416Z,73.94
2023-03-07T18:50:11.008Z,73.84
2023-03-07T18:52:38.871Z,73.99
2023-03-07T18:55:07.394Z,73.90
2023-03-07T18:57:35.159Z,74.29
2023-03-07T19:00:03.962Z,73.96
2023-03-07T19:02:31.873Z,74.09
2023-03-07T19:04:59.644Z,74.24
2023-03-07T19:07:30.034Z,74.55
2023-03-07T19:09:57.992Z,74.72
2023-03-07T19:12:25.799Z,74.81
2023-03-07T19:14:53.553Z,74.37
2023-03-07T19:17:21.958Z,74.30
2023-03-07T19:19:52.915Z,73.93
2023-03-07T19:22:25.887Z,73.74
2023-03-07T19:24:56.186Z,73.90
2023-03-07T19:27:27.990Z,74.33
2023-03-07T19:29:55.844Z,74.24
2023-03-07T19:32:23.628Z,74.16
2023-03-07T19:34:51.516Z,74.76
2023-03-07T19:37:19.412Z,75.06
2023-03-07T19:39:47.184Z,75.60
2023-03-07T19:42:16.345Z,76.03
2023-03-07T19:44:44.095Z,76.18
2023-03-07T19:47:11.829Z,76.33
2023-03-07T19:49:39.652Z,76.01
2023-03-07T19:52:07.636Z,75.48
2023-03-07T19:54:35.356Z,74.79
2023-03-07T19:57:03.188Z,74.53
2023-03-07T19:59:32.267Z,74.58
2023-03-07T20:02:00.090Z,75.55
2023-03-07T20:04:28.149Z,76.08
2023-03-07T20:06:55.907Z,76.10
2023-03-07T20:09:23.660Z,75.81
2023-03-07T20:11:51.729Z,75.77
2023-03-07T20:14:19.524Z,75.79
2023-03-07T20:16:48.686Z,75.95
2023-03-07T20:19:16.536Z,76.13
2023-03-07T20:21:49.835Z,76.22
2023-03-07T20:24:18.487Z,76.54
2023-03-07T20:26:47.395Z,76.89
2023-03-07T20:29:15.289Z,76.97
2023-03-07T20:31:43.098Z,77.38
2023-03-07T20:34:12.683Z,77.64
2023-03-07T20:36:40.489Z,77.49
2023-03-07T20:39:13.101Z,77.33
2023-03-07T20:41:42.083Z,77.55
2023-03-07T20:44:12.871Z,77.42
2023-03-07T20:46:41.314Z,77.89
2023-03-07T20:49:09.187Z,77.60
2023-03-07T20:51:39.197Z,76.45
2023-03-07T20:54:08.760Z,76.22
2023-03-07T20:56:38.413Z,75.93
2023-03-07T20:59:07.091Z,76.07
2023-03-07T21:01:36.389Z,76.76
2023-03-07T21:04:06.410Z,76.79
2023-03-07T21:06:34.528Z,76.70
2023-03-07T21:09:06.389Z,76.06
2023-03-07T21:11:34.664Z,74.61
2023-03-07T21:14:02.655Z,73.92
2023-03-07T21:16:30.909Z,73.79
2023-03-07T21:19:01.310Z,73.67
2023-03-07T21:21:30.346Z,73.25
2023-03-07T21:23:58.175Z,73.00
2023-03-07T21:26:29.061Z,72.82
2023-03-07T21:28:57.892Z,72.75
2023-03-07T21:31:27.187Z,72.51
2023-03-07T21:33:56.524Z,72.34
2023-03-07T21:36:26.997Z,72.27
2023-03-07T21:38:55.608Z,72.25
2023-03-07T21:41:25.036Z,72.60
2023-03-07T21:43:56.252Z,72.71
2023-03-07T21:46:24.931Z,73.14
2023-03-07T21:48:53.178Z,73.58
2023-03-07T21:51:21.290Z,74.05
2023-03-07T21:53:49.232Z,74.57
2023-03-07T21:56:18.351Z,75.23
2023-03-07T21:58:49.199Z,76.06
2023-03-07T22:01:20.945Z,76.34
2023-03-07T22:03:49.069Z,76.38
2023-03-07T22:06:17.422Z,76.45
2023-03-07T22:08:45.384Z,76.30
2023-03-07T22:11:14.242Z,76.05
2023-03-07T22:13:43.285Z,76.06
2023-03-07T22:16:13.324Z,76.21
2023-03-07T22:18:42.539Z,76.14
2023-03-07T22:21:13.536Z,76.47
2023-03-07T22:23:41.901Z,76.61
2023-03-07T22:26:11.970Z,76.37
2023-03-07T22:28:40.630Z,76.63
2023-03-07T22:31:11.175Z,76.77
2023-03-07T22:33:39.762Z,76.65
2023-03-07T22:36:12.365Z,76.58
2023-03-07T22:38:41.673Z,76.60
2023-03-07T22:41:12.057Z,76.74
2023-03-07T22:43:40.073Z,76.84
2023-03-07T22:46:08.634Z,76.64
2023-03-07T22:48:36.643Z,76.50
2023-03-07T22:51:04.650Z,76.51
2023-03-07T22:53:35.533Z,76.01
2023-03-07T22:56:03.349Z,75.72
2023-03-07T22:58:31.280Z,75.19
2023-03-07T23:00:58.997Z,75.00
2023-03-07T23:03:26.806Z,74.55
2023-03-07T23:06:02.026Z,74.22
2023-03-07T23:08:29.742Z,74.34
2023-03-07T23:11:03.014Z,74.25
2023-03-07T23:13:30.965Z,74.42
2023-03-07T23:15:59.476Z,73.88
2023-03-07T23:18:27.278Z,74.05
2023-03-07T23:20:55.142Z,74.05
2023-03-07T23:23:22.912Z,73.70
2023-03-07T23:25:50.644Z,73.42
2023-03-07T23:28:19.732Z,72.82
2023-03-07T23:30:47.962Z,72.70
2023-03-07T23:33:15.929Z,72.70
2023-03-07T23:35:43.774Z,73.19
2023-03-07T23:38:13.129Z,72.83
2023-03-07T23:40:40.899Z,72.32
2023-03-07T23:43:09.423Z,71.81
2023-03-07T23:45:38.556Z,70.71
2023-03-07T23:48:06.685Z,69.96
2023-03-07T23:50:34.462Z,69.54
2023-03-07T23:53:02.237Z,68.91
2023-03-07T23:55:29.970Z,67.85
2023-03-07T23:57:57.691Z,67.72
